A- A+ FrançaisEnglishEspañol中国

le plus proche LFBT Tarbes-Lourdes-PyrénéesLFQC Luneville-Croismare LFKJ Ajaccio-Napoléon-BonaparteLFKO Propriano Tavaria

manche à air

La météo aéronautique pour les pilotes, la préparation du vol avec les METAR (METeorological Aerodrome Report, message d'observation des conditions météorologiques pour l'aviation) et Les TAF (Terminal Aerodrome Forecast : message de prévision à court terme des conditions météorologiques pour l'aviation). Et les autres ressources comme les VAC (Visual Approch Chart) et les NOTAM (Notice To Airman) pour préprer les vols.

Aéroport Port Hardy (Canada) / OACI CYZT/ IATA YZT

L'altitude de l'aéroport Port Hardy est de 22 m=72 ft. Il est situé à proximité de Port Hardy (Canada). La météo générale à 5 jours est disponible pour Port Hardy situé à 4.3 km.

METAR de l'aéroport Port Hardy - CYZT

CYZT 042100Z 14003KT 12SM FEW007 SCT025 SCT230 13/10 A3024 RMK CF1SC3CI1 CF TR DIST FG NW-NE SLP241

Décodage du METAR de l'aéroport Port Hardy (CA)

METAR émis par CYZT le lundi 4 novembre 2019 à 21:00 heure TU. Attention ce METAR est obsolète car il a été émis il y a 11 heure et 27 minutes.

La visibilité est de 19.3 km=12 sm, il y a du brouillard.

La température est de 13°C=55 °F et le point rosée est de 10°C=50 °F . Ce qui correspond à 82% d'humidité relative.

Le QNH est de 1024 hPa=30.24 inHg

Vent de 3 kt=6 km/h, orienté à 140°.

Nuages : Quelques nuages à 700 ft=210 mètres. Nuages épars à 2500 ft=760 mètres. Nuages épars à 23000 ft=7010 mètres.

RMK CF1SC3CI1 CF TR DIST brouillard NW-NE SLP241

TAF de l'aéroport Port Hardy - CYZT

CYZT 061238Z 0613/0701 10012G22KT P6SM SCT015 OVC050 TEMPO 0613/0701 5SM -RA BR FEW008 BKN015 OVC050 RMK NXT FCST BY 061900Z

CYZT 061238Z 0613/0701 10012G22KT P6SM nuages épars à 015 couverture nuageuse soudée à 050 temporairement 0613/0701 5SM faible RA brume quelques nuages à 008 couverture nuageuse fragmentée à 015 couverture nuageuse soudée à 050 remarques NXT trombe ST BY 061900Z

Aéroport à proximité de Port Hardy

Météo générale à 5 jours à Port Hardy (4.3 km)CYAL Aéroport Alert Bay (34 km)CYJQ Aéroport Bella Bella Denny Island (169 km)CYBL Aéroport Campbell River (170 km)CYBD Aéroport Bella Coola (197 km)CYQQ Aéroport Comox (207 km)CYAZ Aéroport Tofino (211 km)

Vue aérienne de l'aéroport Port Hardy

NOTAM de l'aéroport Port Hardy

Les NOTAM sont fournis sans aucune garantie de leur actualité. Le pilote est le seul responsable de la vérification de sa validité avant de l'utiliser opérationnellement pour préparer un vol ou l'utiliser lors de sa navigation.

Pas de NOTAM

Sources des données